Cloud 9 — 2BRA3 — position and weather

sailwx.info

Track history (hours):
 
Tides and Currents Weather Stations Pressure Air Temp Water Temp Dewpoint Dewpoint Depression Visibility Wind Speed Wind Dir Waves Ship Positions

Cloud 9

Last reported at 2015-Jul-04 09:08 UTC. Time now 2015-Jul-05 12:50 UTC.
Position N 37°45' E 015°13'.

Length 60 m; draft 3.5 m.

Type: Other ship. MMSI: 235068579.

Date/timePositionNaut miles runAvg speedWind from/ knotsBaromVisibWave heightAir tempDewpointWater temp
2015-Jul-04 09:08N 37°45' E 015°13'7 0.1
2015-Jul-02 07:28N 37°51' E 015°18'1212.6
2015-Jul-02 06:34N 37°59' E 015°27'1414.1
2015-Jul-02 05:34N 38°12' E 015°35'10 9.8
2015-Jul-02 04:33N 38°22' E 015°35'1514.8
2015-Jul-02 03:30N 38°30' E 015°18'13 6.6
2015-Jul-02 01:31N 38°38' E 015°05'0 0.0
2015-Jul-01 22:16N 38°38' E 015°05'911.3
2015-Jul-01 21:27N 38°46' E 015°09'2 1.9
2015-Jul-01 20:19N 38°48' E 015°10'8 9.2
2015-Jul-01 19:29N 38°41' E 015°07'4 1.7
2015-Jul-01 17:20N 38°38' E 015°05'0 0.0
2015-Jul-01 16:32N 38°38' E 015°05'0 0.0
2015-Jul-01 12:11N 38°38' E 015°05'0 0.0
2015-Jul-01 05:20N 38°38' E 015°05'0 0.0
2015-Jul-01 04:32N 38°38' E 015°05'0 0.0
2015-Jul-01 03:08N 38°38' E 015°05'0 0.0
2015-Jul-01 02:26N 38°38' E 015°05'0 0.0
2015-Jul-01 01:32N 38°38' E 015°05'0 0.0
2015-Jul-01 00:14N 38°38' E 015°05'0 0.0
2015-Jun-30 20:20N 38°38' E 015°05'0 0.0
2015-Jun-30 19:26N 38°38' E 015°05'0 0.0
2015-Jun-30 18:26N 38°38' E 015°05'0 0.0
2015-Jun-30 17:29N 38°38' E 015°05'0 0.0
2015-Jun-30 16:05N 38°38' E 015°05'0 0.0
2015-Jun-30 15:26N 38°38' E 015°05'0 0.0
2015-Jun-30 14:32N 38°38' E 015°05'0 0.0
2015-Jun-30 13:32N 38°38' E 015°05'0 0.0
2015-Jun-30 12:26N 38°38' E 015°05'0 0.0
2015-Jun-30 11:32N 38°38' E 015°05'0 0.0
2015-Jun-30 10:11N 38°38' E 015°05'0 0.0
2015-Jun-30 09:14N 38°38' E 015°05'0 0.0
2015-Jun-30 08:29N 38°38' E 015°05'0 0.0
2015-Jun-30 07:29N 38°38' E 015°05'0 0.0
2015-Jun-30 06:23N 38°38' E 015°05'0 0.0
2015-Jun-30 05:26N 38°38' E 015°05'4811.8
2015-Jun-30 01:22N 39°25' E 014°54'5914.4
2015-Jun-29 21:17N 40°23' E 014°39'1014.4
2015-Jun-29 20:33N 40°33' E 014°37'9 0.2
2015-Jun-27 19:04N 40°34' E 014°25'5 0.4
2015-Jun-27 06:33N 40°33' E 014°19'2 0.1
2015-Jun-25 19:08N 40°33' E 014°16'2 2.9
2015-Jun-25 18:26N 40°34' E 014°14'0 0.0
2015-Jun-25 17:11N 40°34' E 014°14'0 0.0
2015-Jun-25 13:29N 40°34' E 014°14'0 0.0
2015-Jun-25 12:20N 40°34' E 014°14'0 0.0
2015-Jun-25 11:20N 40°34' E 014°14'0 0.0
2015-Jun-25 10:32N 40°34' E 014°14'0 0.0
2015-Jun-25 08:20N 40°34' E 014°14'2 2.0
2015-Jun-25 07:33N 40°34' E 014°16'1 0.4
2015-Jun-25 05:20N 40°33' E 014°15'0 0.0
2015-Jun-25 04:14N 40°33' E 014°15'0 0.0
2015-Jun-25 03:20N 40°33' E 014°15'0 0.0
2015-Jun-25 02:20N 40°33' E 014°15'0 0.0
2015-Jun-25 00:32N 40°33' E 014°15'0 0.0
2015-Jun-24 23:32N 40°33' E 014°15'0 0.0
2015-Jun-24 22:32N 40°33' E 014°15'0 0.0
2015-Jun-24 20:32N 40°33' E 014°15'0 0.0
2015-Jun-24 19:32N 40°33' E 014°15'0 0.0
2015-Jun-24 18:11N 40°33' E 014°15'0 0.0
2015-Jun-24 17:26N 40°33' E 014°15'0 0.0
2015-Jun-24 16:22N 40°33' E 014°15'1 0.3
2015-Jun-24 14:21N 40°34' E 014°14'0 0.0
2015-Jun-24 13:33N 40°34' E 014°14'1 0.5
2015-Jun-24 11:33N 40°35' E 014°14'1312.9
2015-Jun-24 10:33N 40°47' E 014°14'  
Track history (hours):
 
Tides and Currents Weather Stations Pressure Air Temp Water Temp Dewpoint Dewpoint Depression Visibility Wind Speed Wind Dir Waves Ship Positions

Cloud 9

Last reported at 2015-Jul-04 09:08 UTC. Time now 2015-Jul-05 12:50 UTC.
Position N 37°45' E 015°13'.

Length 60 m; draft 3.5 m.

Type: Other ship. MMSI: 235068579.

Date/timePositionNaut miles runAvg speedWind from/ knotsBaromVisibWave heightAir tempDewpointWater temp
2015-Jul-04 09:08N 37°45' E 015°13'7 0.1
2015-Jul-02 07:28N 37°51' E 015°18'1212.6
2015-Jul-02 06:34N 37°59' E 015°27'1414.1
2015-Jul-02 05:34N 38°12' E 015°35'10 9.8
2015-Jul-02 04:33N 38°22' E 015°35'1514.8
2015-Jul-02 03:30N 38°30' E 015°18'13 6.6
2015-Jul-02 01:31N 38°38' E 015°05'0 0.0
2015-Jul-01 22:16N 38°38' E 015°05'911.3
2015-Jul-01 21:27N 38°46' E 015°09'2 1.9
2015-Jul-01 20:19N 38°48' E 015°10'8 9.2
2015-Jul-01 19:29N 38°41' E 015°07'4 1.7
2015-Jul-01 17:20N 38°38' E 015°05'0 0.0
2015-Jul-01 16:32N 38°38' E 015°05'0 0.0
2015-Jul-01 12:11N 38°38' E 015°05'0 0.0
2015-Jul-01 05:20N 38°38' E 015°05'0 0.0
2015-Jul-01 04:32N 38°38' E 015°05'0 0.0
2015-Jul-01 03:08N 38°38' E 015°05'0 0.0
2015-Jul-01 02:26N 38°38' E 015°05'0 0.0
2015-Jul-01 01:32N 38°38' E 015°05'0 0.0
2015-Jul-01 00:14N 38°38' E 015°05'0 0.0
2015-Jun-30 20:20N 38°38' E 015°05'0 0.0
2015-Jun-30 19:26N 38°38' E 015°05'0 0.0
2015-Jun-30 18:26N 38°38' E 015°05'0 0.0
2015-Jun-30 17:29N 38°38' E 015°05'0 0.0
2015-Jun-30 16:05N 38°38' E 015°05'0 0.0
2015-Jun-30 15:26N 38°38' E 015°05'0 0.0
2015-Jun-30 14:32N 38°38' E 015°05'0 0.0
2015-Jun-30 13:32N 38°38' E 015°05'0 0.0
2015-Jun-30 12:26N 38°38' E 015°05'0 0.0
2015-Jun-30 11:32N 38°38' E 015°05'0 0.0
2015-Jun-30 10:11N 38°38' E 015°05'0 0.0
2015-Jun-30 09:14N 38°38' E 015°05'0 0.0
2015-Jun-30 08:29N 38°38' E 015°05'0 0.0
2015-Jun-30 07:29N 38°38' E 015°05'0 0.0
2015-Jun-30 06:23N 38°38' E 015°05'0 0.0
2015-Jun-30 05:26N 38°38' E 015°05'4811.8
2015-Jun-30 01:22N 39°25' E 014°54'5914.4
2015-Jun-29 21:17N 40°23' E 014°39'1014.4
2015-Jun-29 20:33N 40°33' E 014°37'9 0.2
2015-Jun-27 19:04N 40°34' E 014°25'5 0.4
2015-Jun-27 06:33N 40°33' E 014°19'2 0.1
2015-Jun-25 19:08N 40°33' E 014°16'2 2.9
2015-Jun-25 18:26N 40°34' E 014°14'0 0.0
2015-Jun-25 17:11N 40°34' E 014°14'0 0.0
2015-Jun-25 13:29N 40°34' E 014°14'0 0.0
2015-Jun-25 12:20N 40°34' E 014°14'0 0.0
2015-Jun-25 11:20N 40°34' E 014°14'0 0.0
2015-Jun-25 10:32N 40°34' E 014°14'0 0.0
2015-Jun-25 08:20N 40°34' E 014°14'2 2.0
2015-Jun-25 07:33N 40°34' E 014°16'1 0.4
2015-Jun-25 05:20N 40°33' E 014°15'0 0.0
2015-Jun-25 04:14N 40°33' E 014°15'0 0.0
2015-Jun-25 03:20N 40°33' E 014°15'0 0.0
2015-Jun-25 02:20N 40°33' E 014°15'0 0.0
2015-Jun-25 00:32N 40°33' E 014°15'0 0.0
2015-Jun-24 23:32N 40°33' E 014°15'0 0.0
2015-Jun-24 22:32N 40°33' E 014°15'0 0.0
2015-Jun-24 20:32N 40°33' E 014°15'0 0.0
2015-Jun-24 19:32N 40°33' E 014°15'0 0.0
2015-Jun-24 18:11N 40°33' E 014°15'0 0.0
2015-Jun-24 17:26N 40°33' E 014°15'0 0.0
2015-Jun-24 16:22N 40°33' E 014°15'1 0.3
2015-Jun-24 14:21N 40°34' E 014°14'0 0.0
2015-Jun-24 13:33N 40°34' E 014°14'1 0.5
2015-Jun-24 11:33N 40°35' E 014°14'1312.9
2015-Jun-24 10:33N 40°47' E 014°14'  

Dump ship's entire track history